Het weer levert geen direct gevaar op.    Er zijn geen waarschuwingen afgegeven.

Regen radar Meer informatie rain snow radar


Bezoek onze andere website:

Template documentation
and downloads

And another site

Forum Leuven-template

EUWEATHER.EU

Verwachtingen Meteociel


U vindt ons ook hier:

Het Weer Aktueel

UK Metoffice

European Weather Network

WeatherCloud

Weather Underground

Benelux Weer Netwerk

AWEKAS

WeatherlinkIP

HAMweather, WeatherForYou, PWS Weather

Wetter.com



METAR rapporten vliegvelden

   
EBAW - Antwerp
Gewijzigd: 02-12-2020 09:20
Bewolking  
Bewolking  
   Wind: ONO 5.6 km/h
Wind: ONO 5.6 km/h
Temperatuur: 6°C
Voelt als: 5°C
Dauwpunt: 5°C
Vochtigheid: 93%
Barometer: 1019 hPa
Bewolking: Bewolking
Zicht: meer dan 10 km
Bewolking: Grotendeels bewolkt 800 ft,
Bewolking 3500 ft
EBAW 020820Z 06003KT 9999 BKN008 OVC035 06/05 Q1019 TEMPO BKN005
EBLG - Li├Ęge
Gewijzigd: 02-12-2020 09:20
Nevel, Grotendeels bewolkt  
Nevel, Grotendeels bewolkt  
   Wind: varieert 3.7 km/h
Wind: varieert 3.7 km/h
Temperatuur: 5°C
Dauwpunt: 4°C
Vochtigheid: 93%
Barometer: 1018 hPa
Bewolking: Grotendeels bewolkt
Zicht: 3 km
Bewolking: Gedeeltelijk bewolkt 500 ft,
Grotendeels bewolkt 2700 ft
EBLG 020820Z VRB02KT 3100 BR SCT005 BKN027 05/04 Q1018 TEMPO BKN003
EBCV - Mons/Bergen
Gewijzigd: 02-12-2020 09:33
Grotendeels bewolkt  
Grotendeels bewolkt  
   Wind: NW 5.6 km/h
Wind: NW 5.6 km/h
Temperatuur: 6°C
Voelt als: 5°C
Dauwpunt: 5°C
Vochtigheid: 93%
Barometer: 1018 hPa
Bewolking: Grotendeels bewolkt
Bewolking: Gedeeltelijk bewolkt 600 ft,
Grotendeels bewolkt 3800 ft
EBCV 020833Z AUTO 32003KT //// SCT006/// BKN038/// 06/05 Q1018 YLO
EHBK - Maastricht
Gewijzigd: 02-12-2020 09:25
Nevel, Bewolking  
Nevel, Bewolking  
   Wind: varieert 3.7 km/h
Wind: varieert 3.7 km/h
Temperatuur: 5°C
Dauwpunt: 5°C
Vochtigheid: 100%
Barometer: 1018 hPa
Bewolking: Bewolking
Zicht: 3 km
Bewolking: Gedeeltelijk bewolkt 100 ft,
Bewolking 200 ft
EHBK 020825Z AUTO VRB02KT 3200 BR SCT001 OVC002 05/05 Q1018 TEMPO 2000 OVC002
ELLX - Luxemburg
Gewijzigd: 02-12-2020 09:50
Grotendeels bewolkt  
Grotendeels bewolkt  
   Wind: NNO 13 km/h
Wind: NNO 13 km/h
Temperatuur: 3°C
Voelt als: -1°C
Dauwpunt: 2°C
Vochtigheid: 93%
Barometer: 1017 hPa
Bewolking: Grotendeels bewolkt
Zicht: 7 km
Bewolking: Licht bewolkt 100 ft,
Grotendeels bewolkt 2300 ft
ELLX 020850Z 03007KT 7000 FEW001 BKN023 03/02 Q1017 NOSIG
EBOS - Oostende
Gewijzigd: 02-12-2020 09:50
Grotendeels bewolkt  
Grotendeels bewolkt  
   Wind: varieert 1.9 km/h
Wind: varieert 1.9 km/h
Temperatuur: 6°C
Dauwpunt: 6°C
Vochtigheid: 100%
Barometer: 1019 hPa
Bewolking: Grotendeels bewolkt
Zicht: 9 km
Bewolking: Gedeeltelijk bewolkt 1600 ft,
Grotendeels bewolkt 4500 ft
EBOS 020850Z VRB01KT 9000 SCT016 BKN045 06/06 Q1019 NOSIG

Script ontwikkeld door  Saratoga-weather.org Aangepast voor de template door  Weerstation Leuven

Apparatuur in gebruik:

Weerstation
Davis VP2

Weerprogramma
Meteobridge

Weercomputer
Asus WL -330N3G

Webleverancier
Onecom

Davis VP2

Meteobridge

Asus WL -330N3G

Onecom